createdAt,value
2018-04-25T00:00:00.193Z,15.10
2018-04-25T00:04:56.395Z,15.09
2018-04-25T00:09:53.711Z,15.11
2018-04-25T00:14:49.308Z,15.17
2018-04-25T00:19:46.456Z,15.10
2018-04-25T00:24:42.012Z,15.17
2018-04-25T00:29:37.747Z,15.25
2018-04-25T00:34:34.028Z,15.22
2018-04-25T00:39:30.187Z,15.19
2018-04-25T00:44:26.254Z,15.17
2018-04-25T00:49:22.120Z,15.17
2018-04-25T00:54:18.122Z,15.11
2018-04-25T00:59:18.063Z,15.07
2018-04-25T01:04:13.039Z,15.11
2018-04-25T01:09:10.290Z,15.03
2018-04-25T01:14:07.553Z,15.10
2018-04-25T01:19:04.062Z,15.17
2018-04-25T01:24:03.681Z,15.11
2018-04-25T01:28:58.625Z,15.11
2018-04-25T01:33:58.560Z,15.00
2018-04-25T01:38:57.323Z,14.88
2018-04-25T01:43:53.354Z,14.99
2018-04-25T01:48:49.024Z,14.99
2018-04-25T01:53:44.839Z,14.99
2018-04-25T01:58:40.420Z,14.92
2018-04-25T02:03:36.572Z,14.89
2018-04-25T02:08:32.564Z,15.02
2018-04-25T02:13:28.385Z,15.02
2018-04-25T02:18:24.397Z,15.02
2018-04-25T02:23:25.057Z,15.10
2018-04-25T02:28:20.138Z,15.14
2018-04-25T02:33:16.121Z,15.27
2018-04-25T02:38:12.122Z,15.29
2018-04-25T02:43:12.020Z,15.42
2018-04-25T02:48:08.107Z,15.33
2018-04-25T02:53:07.409Z,15.43
2018-04-25T02:58:02.465Z,15.52
2018-04-25T03:02:58.360Z,15.55
2018-04-25T03:07:54.230Z,15.58
2018-04-25T03:12:55.047Z,15.61
2018-04-25T03:17:50.731Z,15.72
2018-04-25T03:22:46.233Z,15.67
2018-04-25T03:27:42.255Z,15.75
2018-04-25T03:32:38.139Z,15.52
2018-04-25T03:37:37.854Z,15.49
2018-04-25T03:42:37.040Z,15.49
2018-04-25T03:47:31.578Z,15.51
2018-04-25T03:52:31.295Z,15.39
2018-04-25T03:57:30.423Z,15.43
2018-04-25T04:02:25.280Z,15.42
2018-04-25T04:07:21.393Z,15.40
2018-04-25T04:12:17.296Z,15.43
2018-04-25T04:17:13.554Z,15.46
2018-04-25T04:22:14.131Z,15.40
2018-04-25T04:27:09.092Z,15.37
2018-04-25T04:32:04.738Z,15.36
2018-04-25T04:37:01.134Z,15.42
2018-04-25T04:41:57.329Z,15.39
2018-04-25T04:46:57.854Z,15.33
2018-04-25T04:51:52.533Z,15.44
2018-04-25T04:56:49.099Z,15.28
2018-04-25T05:01:48.802Z,15.29
2018-04-25T05:06:48.742Z,15.31
2018-04-25T05:11:43.659Z,15.24
2018-04-25T05:16:39.852Z,15.31
2018-04-25T05:21:36.796Z,15.29
2018-04-25T05:26:36.690Z,15.15
2018-04-25T05:31:32.257Z,15.07
2018-04-25T05:36:28.014Z,15.06
2018-04-25T05:41:24.960Z,14.85
2018-04-25T05:46:21.879Z,14.44
2018-04-25T05:51:17.046Z,13.93
2018-04-25T05:56:13.684Z,13.60
2018-04-25T06:01:09.090Z,13.30
2018-04-25T06:06:05.796Z,13.30
2018-04-25T06:11:02.299Z,13.35
2018-04-25T06:15:58.278Z,13.23
2018-04-25T06:20:59.300Z,13.25
2018-04-25T06:25:53.894Z,13.18
2018-04-25T06:30:50.704Z,13.35
2018-04-25T06:35:50.633Z,13.54
2018-04-25T06:40:46.334Z,13.81
2018-04-25T06:45:43.325Z,13.99
2018-04-25T06:50:39.320Z,13.99
2018-04-25T06:55:35.357Z,14.28
2018-04-25T07:00:35.727Z,14.40
2018-04-25T07:05:31.112Z,14.51
2018-04-25T07:10:27.696Z,14.59
2018-04-25T07:15:23.673Z,14.85
2018-04-25T07:20:24.784Z,14.99
2018-04-25T07:25:20.312Z,14.85
2018-04-25T07:30:17.183Z,14.92
2018-04-25T07:35:12.336Z,14.82
2018-04-25T07:40:08.310Z,14.79
2018-04-25T07:45:04.769Z,14.53
2018-04-25T07:49:59.989Z,14.32
2018-04-25T07:55:00.455Z,14.14
2018-04-25T07:59:58.871Z,13.89
2018-04-25T08:04:59.116Z,14.03
2018-04-25T08:09:58.632Z,14.30
2018-04-25T08:14:55.929Z,15.70
2018-04-25T08:19:52.336Z,15.46
2018-04-25T08:24:48.395Z,15.98
2018-04-25T08:29:45.548Z,15.76
2018-04-25T08:34:42.729Z,16.00
2018-04-25T08:39:41.926Z,15.52
2018-04-25T08:44:36.649Z,15.54
2018-04-25T08:49:36.144Z,15.54
2018-04-25T08:54:34.460Z,15.11
2018-04-25T08:59:30.948Z,15.39
2018-04-25T09:04:30.803Z,15.76
2018-04-25T09:09:26.770Z,15.97
2018-04-25T09:14:26.599Z,15.84
2018-04-25T09:19:22.003Z,15.84
2018-04-25T09:24:18.075Z,16.05
2018-04-25T09:29:15.294Z,15.82
2018-04-25T09:34:15.023Z,16.58
2018-04-25T09:39:15.283Z,17.24
2018-04-25T09:44:15.122Z,16.58
2018-04-25T09:49:10.584Z,16.49
2018-04-25T09:54:06.886Z,15.95
2018-04-25T09:59:01.906Z,15.64
2018-04-25T10:03:57.277Z,15.49
2018-04-25T10:08:52.188Z,15.28
2018-04-25T10:13:51.906Z,15.09
2018-04-25T10:18:46.411Z,14.69
2018-04-25T10:23:46.181Z,14.92
2018-04-25T10:28:45.227Z,15.07
2018-04-25T10:33:42.127Z,15.10
2018-04-25T10:38:37.861Z,15.24
2018-04-25T10:43:33.566Z,14.85
2018-04-25T10:48:29.477Z,14.84
2018-04-25T10:53:25.681Z,15.31
2018-04-25T10:58:22.202Z,15.54
2018-04-25T11:03:18.505Z,15.61
2018-04-25T11:08:15.784Z,15.79
2018-04-25T11:13:12.267Z,16.10
2018-04-25T11:18:08.193Z,16.08
2018-04-25T11:23:07.338Z,15.46
2018-04-25T11:28:01.634Z,15.31
2018-04-25T11:32:57.473Z,14.94
2018-04-25T11:37:53.609Z,14.62
2018-04-25T11:42:48.830Z,14.32
2018-04-25T11:47:44.433Z,14.15
2018-04-25T11:52:45.778Z,14.47
2018-04-25T11:57:40.922Z,14.47
2018-04-25T12:02:37.023Z,14.55
2018-04-25T12:07:34.105Z,14.35
2018-04-25T12:12:33.272Z,14.29
2018-04-25T12:17:32.104Z,14.48
2018-04-25T12:22:27.856Z,14.43
2018-04-25T12:27:23.290Z,14.51
2018-04-25T12:32:19.651Z,14.96
2018-04-25T12:37:15.897Z,14.86
2018-04-25T12:42:11.480Z,14.89
2018-04-25T12:47:11.461Z,14.84
2018-04-25T12:52:06.466Z,14.88
2018-04-25T12:57:02.042Z,14.78
2018-04-25T13:01:57.780Z,14.88
2018-04-25T13:06:57.662Z,14.94
2018-04-25T13:11:53.194Z,14.85
2018-04-25T13:16:50.341Z,15.36
2018-04-25T13:21:50.198Z,15.57
2018-04-25T13:26:50.467Z,15.61
2018-04-25T13:31:49.004Z,15.75
2018-04-25T13:36:44.192Z,15.75
2018-04-25T13:46:40.319Z,15.51
2018-04-25T13:51:36.304Z,15.33
2018-04-25T13:56:37.755Z,15.36
2018-04-25T14:01:36.579Z,15.75
2018-04-25T14:06:35.972Z,15.59
2018-04-25T14:11:30.837Z,15.47
2018-04-25T14:16:26.478Z,15.36
2018-04-25T14:21:21.944Z,15.28
2018-04-25T14:26:18.012Z,15.29
2018-04-25T14:31:13.920Z,15.22
2018-04-25T14:36:10.264Z,15.54
2018-04-25T14:41:09.911Z,15.35
2018-04-25T14:46:09.589Z,15.17
2018-04-25T14:51:04.166Z,15.25
2018-04-25T14:56:04.700Z,14.97
2018-04-25T15:00:59.607Z,15.24
2018-04-25T15:05:55.759Z,15.15
2018-04-25T15:10:56.172Z,15.02
2018-04-25T15:15:51.634Z,14.86
2018-04-25T15:20:50.938Z,15.21
2018-04-25T15:25:46.025Z,15.07
2018-04-25T15:30:45.920Z,15.37
2018-04-25T15:35:40.979Z,15.07
2018-04-25T15:40:36.178Z,14.99
2018-04-25T15:45:32.221Z,14.94
2018-04-25T15:50:28.094Z,15.06
2018-04-25T15:55:24.538Z,14.89
2018-04-25T16:00:20.886Z,14.86
2018-04-25T16:05:16.761Z,14.88
2018-04-25T16:10:12.680Z,14.91
2018-04-25T16:15:08.566Z,14.96
2018-04-25T16:20:04.534Z,15.10
2018-04-25T16:25:00.783Z,15.14
2018-04-25T16:29:56.308Z,14.88
2018-04-25T16:34:55.931Z,14.88
2018-04-25T16:39:55.644Z,14.72
2018-04-25T16:44:51.318Z,14.81
2018-04-25T16:49:50.828Z,14.78
2018-04-25T16:54:45.609Z,14.62
2018-04-25T16:59:45.261Z,14.66
2018-04-25T17:04:44.249Z,14.65
2018-04-25T17:09:38.975Z,14.48
2018-04-25T17:14:34.818Z,14.66
2018-04-25T17:19:31.228Z,14.62
2018-04-25T17:24:27.009Z,14.58
2018-04-25T17:29:22.541Z,14.41
2018-04-25T17:34:23.321Z,14.25
2018-04-25T17:39:22.153Z,14.23
2018-04-25T17:44:20.873Z,14.12
2018-04-25T17:49:19.388Z,14.07
2018-04-25T17:54:14.501Z,14.00
2018-04-25T17:59:11.747Z,14.07
2018-04-25T18:04:07.268Z,14.00
2018-04-25T18:09:02.831Z,13.74
2018-04-25T18:13:58.332Z,13.68
2018-04-25T18:18:53.896Z,13.53
2018-04-25T18:23:49.545Z,13.46
2018-04-25T18:28:45.169Z,13.41
2018-04-25T18:33:41.238Z,13.42
2018-04-25T18:38:37.124Z,13.38
2018-04-25T18:43:32.734Z,13.20
2018-04-25T18:48:32.712Z,13.15
2018-04-25T18:53:28.675Z,13.08
2018-04-25T18:58:25.213Z,12.91
2018-04-25T19:03:20.623Z,12.86
2018-04-25T19:08:16.372Z,12.75
2018-04-25T19:13:12.089Z,12.68
2018-04-25T19:18:07.968Z,12.43
2018-04-25T19:23:03.839Z,12.43
2018-04-25T19:27:59.585Z,12.42
2018-04-25T19:32:55.500Z,12.39
2018-04-25T19:37:51.187Z,12.43
2018-04-25T19:42:47.046Z,12.40
2018-04-25T19:47:46.862Z,12.49
2018-04-25T19:52:42.920Z,12.53
2018-04-25T19:57:38.566Z,12.43
2018-04-25T20:02:38.387Z,12.50
2018-04-25T20:07:34.178Z,12.42
2018-04-25T20:12:30.392Z,12.42
2018-04-25T20:17:26.084Z,12.37
2018-04-25T20:22:21.930Z,12.43
2018-04-25T20:27:17.783Z,12.45
2018-04-25T20:32:13.749Z,12.39
2018-04-25T20:37:09.433Z,12.49
2018-04-25T20:42:05.064Z,12.29
2018-04-25T20:47:05.369Z,12.03
2018-04-25T20:52:01.502Z,11.91
2018-04-25T20:57:02.155Z,11.94
2018-04-25T21:02:00.769Z,11.95
2018-04-25T21:06:56.775Z,11.95
2018-04-25T21:11:53.293Z,12.06
2018-04-25T21:16:49.176Z,12.10
2018-04-25T21:21:45.053Z,11.99
2018-04-25T21:26:40.944Z,11.94
2018-04-25T21:31:36.623Z,11.91
2018-04-25T21:36:37.877Z,12.06
2018-04-25T21:41:34.048Z,11.97
2018-04-25T21:46:30.742Z,11.88
2018-04-25T21:51:26.373Z,11.84
2018-04-25T21:56:22.270Z,11.86
2018-04-25T22:01:18.598Z,11.86
2018-04-25T22:06:14.455Z,11.91
2018-04-25T22:11:10.471Z,11.90
2018-04-25T22:16:06.019Z,11.84
2018-04-25T22:21:01.809Z,11.77
2018-04-25T22:25:58.558Z,11.77
2018-04-25T22:30:54.188Z,11.60
2018-04-25T22:35:54.107Z,11.60
2018-04-25T22:40:53.363Z,11.47
2018-04-25T22:45:48.274Z,11.33
2018-04-25T22:50:44.732Z,11.37
2018-04-25T22:55:40.217Z,11.35
2018-04-25T23:00:36.578Z,11.33
2018-04-25T23:05:32.410Z,11.18
2018-04-25T23:10:29.153Z,11.08
2018-04-25T23:15:24.797Z,11.22
2018-04-25T23:20:24.562Z,11.08
2018-04-25T23:25:19.657Z,11.00
2018-04-25T23:30:19.477Z,10.93
2018-04-25T23:35:15.611Z,10.82
2018-04-25T23:40:11.753Z,10.63
2018-04-25T23:45:08.708Z,10.57
2018-04-25T23:50:08.137Z,10.59
2018-04-25T23:55:06.950Z,10.64
